Time;durP1;ratioP1;P1;durP2;ratioP2;P2;SDS_P1;SDS_P2;PMS_P1;PMS_P2;Temp;Humidity;BMP_temperature;BMP_pressure;BME280_temperature;BME280_humidity;BME280_pressure;Samples;Min_cycle;Max_cycle;Signal;HPM_P1;HPM_P2
2023/10/06 00:01:56;;;;;;;6.27;3.67;;;;;;;-146.25;100.00;57403.91;4936400;29;20223;-86
2023/10/06 00:04:26;;;;;;;12.43;3.73;;;;;;;-146.25;100.00;57403.91;4937354;29;20219;-86
2023/10/06 00:07:06;;;;;;;5.03;3.57;;;;;;;-146.25;100.00;57403.91;4924953;29;20210;-85
2023/10/06 00:09:34;;;;;;;2.53;2.33;;;;;;;-146.25;100.00;57403.91;4914722;29;20216;-84
2023/10/06 00:12:07;;;;;;;8.93;3.07;;;;;;;-146.25;100.00;57403.91;4913516;29;20226;-86
2023/10/06 00:14:48;;;;;;;5.47;3.63;;;;;;;-146.25;100.00;57403.91;4913530;29;20219;-86
2023/10/06 00:17:19;;;;;;;2.77;2.43;;;;;;;-146.25;100.00;57403.91;4912550;29;20263;-85
2023/10/06 00:19:51;;;;;;;4.63;3.67;;;;;;;-146.25;100.00;57403.91;4913345;29;20210;-85
2023/10/06 00:22:21;;;;;;;6.43;3.60;;;;;;;-146.25;100.00;57403.91;4909891;29;20754;-85
2023/10/06 00:24:51;;;;;;;4.27;3.23;;;;;;;-146.25;100.00;57403.91;4909866;29;20272;-85
2023/10/06 00:27:29;;;;;;;3.13;2.83;;;;;;;-146.25;100.00;57403.91;4905756;29;20210;-85
2023/10/06 00:30:00;;;;;;;5.87;3.47;;;;;;;-146.25;100.00;57403.91;4911879;29;20242;-85
2023/10/06 00:32:30;;;;;;;5.13;3.50;;;;;;;-146.25;100.00;57403.91;4897897;29;20579;-85
2023/10/06 00:35:08;;;;;;;5.13;3.10;;;;;;;-146.25;100.00;57403.91;4914065;29;20196;-85
2023/10/06 00:37:42;;;;;;;5.03;2.83;;;;;;;-146.25;100.00;57403.91;4911562;29;20464;-85
2023/10/06 00:40:19;;;;;;;8.63;3.07;;;;;;;-146.25;100.00;57403.91;4911826;29;20204;-86
2023/10/06 00:42:56;;;;;;;3.43;2.90;;;;;;;-146.25;100.00;57403.91;4912793;29;20581;-85
2023/10/06 00:45:26;;;;;;;4.20;3.37;;;;;;;-146.25;100.00;57403.91;4912517;29;20249;-85
2023/10/06 00:47:54;;;;;;;3.03;2.83;;;;;;;-146.25;100.00;57403.91;4912788;29;20230;-85
2023/10/06 00:50:32;;;;;;;3.90;2.90;;;;;;;-146.25;100.00;57403.91;4913443;29;20456;-84
2023/10/06 00:53:04;;;;;;;3.57;3.10;;;;;;;-146.25;100.00;57403.91;4912402;29;20203;-85
2023/10/06 00:55:35;;;;;;;5.47;2.90;;;;;;;-146.25;100.00;57403.91;4914272;29;20207;-85
2023/10/06 00:58:10;;;;;;;4.73;3.40;;;;;;;-146.25;100.00;57403.91;4913953;29;20241;-85
2023/10/06 01:00:42;;;;;;;3.80;3.30;;;;;;;-146.25;100.00;57403.91;4929606;29;20202;-86
2023/10/06 01:03:14;;;;;;;9.20;3.10;;;;;;;-146.25;100.00;57403.91;4937154;29;20239;-85
2023/10/06 01:05:46;;;;;;;6.00;3.10;;;;;;;-146.25;100.00;57403.91;4917154;29;20287;-85
2023/10/06 01:08:16;;;;;;;3.07;2.63;;;;;;;-146.25;100.00;57403.91;4934071;29;20200;-85
2023/10/06 01:10:51;;;;;;;3.13;2.57;;;;;;;-146.25;100.00;57403.91;4932672;29;20192;-85
2023/10/06 01:13:22;;;;;;;3.90;2.83;;;;;;;-146.25;100.00;57403.91;4930868;29;20204;-86
2023/10/06 01:15:56;;;;;;;6.97;2.60;;;;;;;-146.25;100.00;57403.91;4917506;29;20303;-85
2023/10/06 01:18:35;;;;;;;3.57;3.03;;;;;;;-146.25;100.00;57403.91;4914010;29;20208;-86
2023/10/06 01:21:17;;;;;;;5.60;3.30;;;;;;;-146.25;100.00;57403.91;4922135;29;20278;-84
2023/10/06 01:23:49;;;;;;;3.63;3.30;;;;;;;-146.25;100.00;57403.91;4934689;29;20215;-87
2023/10/06 01:26:22;;;;;;;10.27;2.90;;;;;;;-146.25;100.00;57403.91;4919295;29;20684;-86
2023/10/06 01:28:57;;;;;;;3.40;3.10;;;;;;;-146.25;100.00;57403.91;4914121;29;20558;-85
2023/10/06 01:31:29;;;;;;;3.03;2.83;;;;;;;-146.25;100.00;57403.91;4914564;29;20311;-85
2023/10/06 01:34:00;;;;;;;3.93;2.77;;;;;;;-146.25;100.00;57403.91;4920275;29;20305;-85
2023/10/06 01:36:30;;;;;;;3.70;3.33;;;;;;;-146.25;100.00;57403.91;4921682;29;20698;-85
2023/10/06 01:39:04;;;;;;;8.40;3.47;;;;;;;-146.25;100.00;57403.91;4913158;29;20204;-85
2023/10/06 01:41:34;;;;;;;3.53;3.03;;;;;;;-146.25;100.00;57403.91;4917360;29;20280;-84
2023/10/06 01:44:10;;;;;;;3.90;3.13;;;;;;;-146.25;100.00;57403.91;4912562;29;20192;-85
2023/10/06 01:46:39;;;;;;;4.60;3.20;;;;;;;-146.25;100.00;57403.91;4913078;29;20231;-85
2023/10/06 01:49:11;;;;;;;5.07;3.10;;;;;;;-146.25;100.00;57403.91;4912930;29;20364;-85
2023/10/06 01:51:45;;;;;;;10.43;3.40;;;;;;;-146.25;100.00;57403.91;4913008;29;20223;-84
2023/10/06 01:54:16;;;;;;;3.47;3.17;;;;;;;-146.25;100.00;57403.91;4913184;29;20193;-85
2023/10/06 01:56:45;;;;;;;3.40;3.10;;;;;;;-146.25;100.00;57403.91;4915409;29;20330;-85
2023/10/06 01:59:16;;;;;;;4.20;3.13;;;;;;;-146.25;100.00;57403.91;4917095;29;20230;-86
2023/10/06 02:01:46;;;;;;;5.13;2.90;;;;;;;-146.25;100.00;57403.91;4909777;29;20497;-85
2023/10/06 02:04:19;;;;;;;6.13;3.50;;;;;;;-146.25;100.00;57403.91;4918626;29;20212;-85
2023/10/06 02:06:51;;;;;;;3.43;3.07;;;;;;;-146.25;100.00;57403.91;4915523;29;20243;-85
2023/10/06 02:09:25;;;;;;;3.27;3.00;;;;;;;-146.25;100.00;57403.91;4916694;29;20216;-86
2023/10/06 02:11:55;;;;;;;3.37;3.07;;;;;;;-146.25;100.00;57403.91;4916468;29;20192;-86
2023/10/06 02:14:23;;;;;;;3.43;3.13;;;;;;;-146.25;100.00;57403.91;4916291;29;20219;-85
2023/10/06 02:16:55;;;;;;;5.80;3.13;;;;;;;-146.25;100.00;57403.91;4923725;29;20245;-85
2023/10/06 02:19:28;;;;;;;4.30;3.00;;;;;;;-146.25;100.00;57403.91;4916130;29;20226;-86
2023/10/06 02:21:57;;;;;;;3.17;2.97;;;;;;;-146.25;100.00;57403.91;4915384;29;20493;-86
2023/10/06 02:24:29;;;;;;;4.97;3.17;;;;;;;-146.25;100.00;57403.91;4915980;29;20592;-86
2023/10/06 02:27:00;;;;;;;6.87;3.67;;;;;;;-146.25;100.00;57403.91;4930862;29;20241;-85
2023/10/06 02:29:31;;;;;;;4.23;3.17;;;;;;;-146.25;100.00;57403.91;4928433;29;20268;-85
2023/10/06 02:32:06;;;;;;;7.63;3.30;;;;;;;-146.25;100.00;57403.91;4922731;29;20216;-84
2023/10/06 02:34:38;;;;;;;3.73;2.83;;;;;;;-146.25;100.00;57403.91;4918503;29;20295;-87
2023/10/06 02:37:08;;;;;;;2.93;2.73;;;;;;;-146.25;100.00;57403.91;4900411;29;20623;-84
2023/10/06 02:39:43;;;;;;;5.10;3.43;;;;;;;-146.25;100.00;57403.91;4916269;29;20196;-86
2023/10/06 02:42:15;;;;;;;2.57;2.43;;;;;;;-146.25;100.00;57403.91;4916144;29;20218;-85
2023/10/06 02:44:44;;;;;;;5.83;3.00;;;;;;;-146.25;100.00;57403.91;4916033;29;20200;-86
2023/10/06 02:47:15;;;;;;;4.40;3.60;;;;;;;-146.25;100.00;57403.91;4929531;29;20231;-85
2023/10/06 02:49:49;;;;;;;4.73;3.37;;;;;;;-146.25;100.00;57403.91;4939600;29;20274;-86
2023/10/06 02:52:22;;;;;;;4.67;3.37;;;;;;;-146.25;100.00;57403.91;4932709;29;20240;-86
2023/10/06 02:55:08;;;;;;;6.27;2.93;;;;;;;-146.25;100.00;57403.91;4908875;29;20228;-85
2023/10/06 02:57:50;;;;;;;4.70;3.40;;;;;;;-146.25;100.00;57403.91;4917236;29;20216;-84
2023/10/06 03:00:36;;;;;;;3.53;3.10;;;;;;;-146.25;100.00;57403.91;4914344;29;20207;-84
2023/10/06 03:03:17;;;;;;;3.47;2.97;;;;;;;-146.25;100.00;57403.91;4900484;29;20653;-84
2023/10/06 03:05:52;;;;;;;5.73;2.57;;;;;;;-146.25;100.00;57403.91;4917546;29;20327;-85
2023/10/06 03:08:23;;;;;;;3.30;3.10;;;;;;;-146.25;100.00;57403.91;4901584;29;20292;-85
2023/10/06 03:10:53;;;;;;;3.40;2.90;;;;;;;-146.25;100.00;57403.91;4914713;29;20581;-85
2023/10/06 03:13:32;;;;;;;2.83;2.60;;;;;;;-146.25;100.00;57403.91;4918067;29;20274;-84
2023/10/06 03:16:10;;;;;;;3.67;2.90;;;;;;;-146.25;100.00;57403.91;4933626;29;20310;-83
2023/10/06 03:18:39;;;;;;;3.17;2.80;;;;;;;-146.25;100.00;57403.91;4921483;29;20611;-85
2023/10/06 03:21:14;;;;;;;3.53;3.17;;;;;;;-146.25;100.00;57403.91;4914798;29;20286;-86
2023/10/06 03:23:47;;;;;;;3.23;2.57;;;;;;;-146.25;100.00;57403.91;4914489;29;20205;-84
2023/10/06 03:26:29;;;;;;;2.90;2.70;;;;;;;-146.25;100.00;57403.91;4915042;29;20911;-85
2023/10/06 03:29:02;;;;;;;4.03;2.43;;;;;;;-146.25;100.00;57403.91;4914791;29;20298;-86
2023/10/06 03:31:44;;;;;;;2.87;2.70;;;;;;;-146.25;100.00;57403.91;4915068;29;20744;-84
2023/10/06 03:34:20;;;;;;;4.80;2.30;;;;;;;-146.25;100.00;57403.91;4899027;29;20235;-85
2023/10/06 03:36:52;;;;;;;3.03;2.23;;;;;;;-146.25;100.00;57403.91;4915076;29;20201;-85
2023/10/06 03:39:28;;;;;;;3.50;2.73;;;;;;;-146.25;100.00;57403.91;4914540;29;20245;-86
2023/10/06 03:42:02;;;;;;;3.37;3.17;;;;;;;-146.25;100.00;57403.91;4916267;29;20280;-86
2023/10/06 03:44:34;;;;;;;3.23;2.57;;;;;;;-146.25;100.00;57403.91;4913915;29;20278;-86
2023/10/06 03:47:07;;;;;;;2.60;2.47;;;;;;;-146.25;100.00;57403.91;4916536;29;20293;-85
2023/10/06 03:49:42;;;;;;;3.23;2.90;;;;;;;-146.25;100.00;57403.91;4916852;29;20228;-85
2023/10/06 03:52:16;;;;;;;7.03;2.67;;;;;;;-146.25;100.00;57403.91;4915512;29;20209;-85
2023/10/06 03:54:52;;;;;;;2.67;2.47;;;;;;;-146.25;100.00;57403.91;4914615;29;20664;-85
2023/10/06 03:57:22;;;;;;;2.20;2.07;;;;;;;-146.25;100.00;57403.91;4914242;29;20272;-85
2023/10/06 03:59:53;;;;;;;3.23;2.40;;;;;;;-146.25;100.00;57403.91;4914127;29;20236;-86
2023/10/06 04:02:21;;;;;;;5.20;2.90;;;;;;;-146.25;100.00;57403.91;4914648;29;20228;-85
2023/10/06 04:04:52;;;;;;;2.93;2.73;;;;;;;-146.25;100.00;57403.91;4913904;29;20206;-84
2023/10/06 04:07:23;;;;;;;2.90;2.70;;;;;;;-146.25;100.00;57403.91;4913287;29;20224;-85
2023/10/06 04:09:53;;;;;;;2.97;2.67;;;;;;;-146.25;100.00;57403.91;4914702;29;20224;-85
2023/10/06 04:12:25;;;;;;;2.93;2.33;;;;;;;-146.25;100.00;57403.91;4914029;29;20693;-85
2023/10/06 04:14:55;;;;;;;4.33;2.87;;;;;;;-146.25;100.00;57403.91;4914502;29;20303;-85
2023/10/06 04:17:29;;;;;;;3.73;3.03;;;;;;;-146.25;100.00;57403.91;4913451;29;20247;-84
2023/10/06 04:19:58;;;;;;;5.63;2.57;;;;;;;-146.25;100.00;57403.91;4899835;29;20270;-85
2023/10/06 04:22:26;;;;;;;2.47;2.27;;;;;;;-146.25;100.00;57403.91;4913664;29;20201;-86
2023/10/06 04:24:56;;;;;;;4.63;3.50;;;;;;;-146.25;100.00;57403.91;4913176;29;20224;-85
2023/10/06 04:27:27;;;;;;;3.07;2.73;;;;;;;-146.25;100.00;57403.91;4913487;29;20257;-85
2023/10/06 04:29:56;;;;;;;2.73;2.53;;;;;;;-146.25;100.00;57403.91;4915146;29;20295;-84
2023/10/06 04:32:26;;;;;;;6.63;2.80;;;;;;;-146.25;100.00;57403.91;4913580;29;20224;-85
2023/10/06 04:35:10;;;;;;;2.23;2.13;;;;;;;-146.25;100.00;57403.91;4913389;29;20273;-84
2023/10/06 04:37:46;;;;;;;13.40;3.00;;;;;;;-146.25;100.00;57403.91;4913347;29;20265;-84
2023/10/06 04:40:17;;;;;;;3.10;2.90;;;;;;;-146.25;100.00;57403.91;4914187;29;20231;-85
2023/10/06 04:42:52;;;;;;;2.60;2.40;;;;;;;-146.25;100.00;57403.91;4913271;29;20211;-86
2023/10/06 04:45:23;;;;;;;2.87;2.50;;;;;;;-146.25;100.00;57403.91;4912816;29;20235;-85
2023/10/06 04:47:55;;;;;;;3.10;2.80;;;;;;;-146.25;100.00;57403.91;4913132;29;20566;-85
2023/10/06 04:50:25;;;;;;;2.87;2.77;;;;;;;-146.25;100.00;57403.91;4912477;29;20207;-85
2023/10/06 04:52:54;;;;;;;4.70;2.77;;;;;;;-146.25;100.00;57403.91;4913669;29;20239;-86
2023/10/06 04:55:23;;;;;;;6.13;3.30;;;;;;;-146.25;100.00;57403.91;4913070;29;20383;-84
2023/10/06 04:57:55;;;;;;;3.83;2.33;;;;;;;-146.25;100.00;57403.91;4913480;29;20230;-85
2023/10/06 05:00:27;;;;;;;2.60;2.40;;;;;;;-146.25;100.00;57403.91;4898156;29;20232;-84
2023/10/06 05:02:58;;;;;;;3.22;2.75;;;;;;;-146.25;100.00;57403.91;4917941;29;20240;-84
2023/10/06 05:05:33;;;;;;;6.38;2.53;;;;;;;-146.25;100.00;57403.91;4923225;29;20296;-84
2023/10/06 05:08:03;;;;;;;2.67;2.47;;;;;;;-146.25;100.00;57403.91;4931597;29;20243;-83
2023/10/06 05:10:33;;;;;;;2.63;2.42;;;;;;;-146.25;100.00;57403.91;4915349;29;20231;-84
2023/10/06 05:13:06;;;;;;;2.83;2.63;;;;;;;-146.25;100.00;57403.91;4912637;29;20695;-85
2023/10/06 05:15:41;;;;;;;3.30;2.72;;;;;;;-146.25;100.00;57403.91;4913576;29;20254;-85
2023/10/06 05:18:15;;;;;;;5.63;2.85;;;;;;;-146.25;100.00;57403.91;4909770;29;20226;-85
2023/10/06 05:20:46;;;;;;;5.30;3.90;;;;;;;-146.25;100.00;57403.91;4913504;29;20209;-85
2023/10/06 05:23:16;;;;;;;3.05;2.85;;;;;;;-146.25;100.00;57403.91;4898726;29;20238;-85
2023/10/06 05:25:47;;;;;;;10.30;3.47;;;;;;;-146.25;100.00;57403.91;4912205;29;20224;-84
2023/10/06 05:28:17;;;;;;;4.70;3.47;;;;;;;-146.25;100.00;57403.91;4912423;29;20229;-85
2023/10/06 05:30:47;;;;;;;4.78;3.08;;;;;;;-146.25;100.00;57403.91;4912583;29;20216;-85
2023/10/06 05:33:22;;;;;;;7.88;3.40;;;;;;;-146.25;100.00;57403.91;4911970;29;20310;-84
2023/10/06 05:35:51;;;;;;;3.53;3.08;;;;;;;-146.25;100.00;57403.91;4912808;29;20222;-86
2023/10/06 05:38:20;;;;;;;3.85;2.63;;;;;;;-146.25;100.00;57403.91;4917064;29;20320;-85
2023/10/06 05:40:50;;;;;;;4.78;2.63;;;;;;;-146.25;100.00;57403.91;4919888;29;20305;-86
2023/10/06 05:43:24;;;;;;;9.45;3.30;;;;;;;-146.25;100.00;57403.91;4928663;29;20271;-87
2023/10/06 05:45:55;;;;;;;2.90;2.80;;;;;;;-146.25;100.00;57403.91;4937269;29;20211;-86
2023/10/06 05:48:28;;;;;;;4.68;3.70;;;;;;;-146.25;100.00;57403.91;4940142;29;20228;-85
2023/10/06 05:51:04;;;;;;;4.00;2.72;;;;;;;-146.25;100.00;57403.91;4940203;29;20337;-85
2023/10/06 05:53:38;;;;;;;3.53;3.22;;;;;;;-146.25;100.00;57403.91;4939514;29;20622;-85
2023/10/06 05:56:08;;;;;;;3.13;2.92;;;;;;;-146.25;100.00;57403.91;4934637;29;20275;-86
2023/10/06 05:58:40;;;;;;;3.53;3.28;;;;;;;-146.25;100.00;57403.91;4934256;29;20212;-87
2023/10/06 06:01:13;;;;;;;4.47;3.60;;;;;;;-146.25;100.00;57403.91;4935147;29;20215;-86
2023/10/06 06:03:45;;;;;;;2.97;2.78;;;;;;;-146.25;100.00;57403.91;4937300;29;20295;-83
2023/10/06 06:06:15;;;;;;;3.83;3.03;;;;;;;-146.25;100.00;57403.91;4927547;29;20235;-85
2023/10/06 06:08:47;;;;;;;4.70;3.08;;;;;;;-146.25;100.00;57403.91;4934998;29;20231;-86
2023/10/06 06:11:16;;;;;;;6.00;3.58;;;;;;;-146.25;100.00;57403.91;4924448;29;20260;-84
2023/10/06 06:13:46;;;;;;;4.20;3.10;;;;;;;-146.25;100.00;57403.91;4924229;29;20616;-87
2023/10/06 06:16:15;;;;;;;5.60;3.20;;;;;;;-146.25;100.00;57403.91;4913907;29;20622;-83
2023/10/06 06:18:44;;;;;;;6.70;3.75;;;;;;;-146.25;100.00;57403.91;4920315;29;20228;-85
2023/10/06 06:21:16;;;;;;;4.50;3.10;;;;;;;-146.25;100.00;57403.91;4909016;29;20201;-84
2023/10/06 06:23:46;;;;;;;3.20;2.90;;;;;;;-146.25;100.00;57403.91;4913099;29;20216;-86
2023/10/06 06:26:17;;;;;;;6.03;3.47;;;;;;;-146.25;100.00;57403.91;4914893;29;20238;-86
2023/10/06 06:28:49;;;;;;;9.30;3.58;;;;;;;-146.25;100.00;57403.91;4898006;29;20232;-86
2023/10/06 06:31:18;;;;;;;4.47;4.07;;;;;;;-146.25;100.00;57403.91;4915086;29;20200;-84
2023/10/06 06:33:48;;;;;;;4.57;3.38;;;;;;;-146.25;100.00;57403.91;4915179;29;21276;-84
2023/10/06 06:36:19;;;;;;;7.35;3.60;;;;;;;-146.25;100.00;57403.91;4914970;29;20240;-87
2023/10/06 06:38:53;;;;;;;2.83;2.72;;;;;;;-146.25;100.00;57403.91;4914208;29;20219;-86
2023/10/06 06:41:28;;;;;;;4.03;3.40;;;;;;;-146.25;100.00;57403.91;4914512;29;20260;-86
2023/10/06 06:43:59;;;;;;;4.05;3.70;;;;;;;-146.25;100.00;57403.91;4915827;29;20342;-85
2023/10/06 06:46:29;;;;;;;4.72;3.45;;;;;;;-146.25;100.00;57403.91;4920973;29;20222;-85
2023/10/06 06:48:59;;;;;;;4.07;3.67;;;;;;;-146.25;100.00;57403.91;4914530;29;20240;-86
2023/10/06 06:51:30;;;;;;;8.45;3.35;;;;;;;-146.25;100.00;57403.91;4914544;29;20226;-85
2023/10/06 06:53:58;;;;;;;2.83;2.63;;;;;;;-146.25;100.00;57403.91;4914588;29;20212;-87
2023/10/06 06:56:29;;;;;;;5.85;3.15;;;;;;;-146.25;100.00;57403.91;4914826;29;20766;-85
2023/10/06 06:59:00;;;;;;;5.07;3.17;;;;;;;-146.25;100.00;57403.91;4916314;29;20216;-85
2023/10/06 07:01:33;;;;;;;3.13;2.83;;;;;;;-146.25;100.00;57403.91;4920964;29;20224;-84
2023/10/06 07:04:04;;;;;;;5.38;3.75;;;;;;;-146.25;100.00;57403.91;4915100;29;20228;-85
2023/10/06 07:06:41;;;;;;;11.45;3.25;;;;;;;-146.25;100.00;57403.91;4916562;29;20196;-87
2023/10/06 07:09:12;;;;;;;3.92;3.30;;;;;;;-146.25;100.00;57403.91;4898502;29;20745;-85
2023/10/06 07:11:43;;;;;;;3.40;2.60;;;;;;;-146.25;100.00;57403.91;4902575;29;20232;-86
2023/10/06 07:14:14;;;;;;;3.40;3.05;;;;;;;-146.25;100.00;57403.91;4907783;29;20232;-86
2023/10/06 07:16:43;;;;;;;3.97;3.58;;;;;;;-146.25;100.00;57403.91;4906760;29;20232;-85
2023/10/06 07:19:14;;;;;;;3.42;3.13;;;;;;;-146.25;100.00;57403.91;4907312;29;20242;-86
2023/10/06 07:21:43;;;;;;;3.65;3.28;;;;;;;-146.25;100.00;57403.91;4907614;29;20239;-85
2023/10/06 07:24:13;;;;;;;10.85;4.38;;;;;;;-146.25;100.00;57403.91;4896020;29;20244;-83
2023/10/06 07:26:43;;;;;;;3.72;3.42;;;;;;;-146.25;100.00;57403.91;4913772;29;20212;-86
2023/10/06 07:29:14;;;;;;;4.63;4.18;;;;;;;-146.25;100.00;57403.91;4907401;29;20255;-85
2023/10/06 07:31:43;;;;;;;2.88;2.70;;;;;;;-146.25;100.00;57403.91;4911704;29;20725;-85
2023/10/06 07:34:12;;;;;;;6.18;3.83;;;;;;;-146.25;100.00;57403.91;4908302;29;20310;-86
2023/10/06 07:36:43;;;;;;;3.15;2.95;;;;;;;-146.25;100.00;57403.91;4907485;29;20224;-85
2023/10/06 07:39:20;;;;;;;5.47;2.80;;;;;;;-146.25;100.00;57403.91;4897739;29;20753;-86
2023/10/06 07:41:52;;;;;;;3.38;3.17;;;;;;;-146.25;100.00;57403.91;4909751;29;20276;-85
2023/10/06 07:44:24;;;;;;;4.72;3.85;;;;;;;-146.25;100.00;57403.91;4911175;29;20741;-85
2023/10/06 07:46:52;;;;;;;8.98;4.28;;;;;;;-146.25;100.00;57403.91;4912921;29;20228;-85
2023/10/06 07:49:21;;;;;;;7.93;3.85;;;;;;;-146.25;100.00;57403.91;4911988;29;20766;-87
2023/10/06 07:51:50;;;;;;;3.50;3.20;;;;;;;-146.25;100.00;57403.91;4911944;29;20605;-85
2023/10/06 07:54:17;;;;;;;3.80;3.50;;;;;;;-146.25;100.00;57403.91;4911739;29;20251;-85
2023/10/06 07:56:49;;;;;;;3.90;3.55;;;;;;;-146.25;100.00;57403.91;4912681;29;20736;-86
2023/10/06 07:59:19;;;;;;;4.40;3.95;;;;;;;-146.25;100.00;57403.91;4910314;29;20542;-86
2023/10/06 08:01:50;;;;;;;5.22;3.60;;;;;;;-146.25;100.00;57403.91;4912259;29;20319;-86
2023/10/06 08:04:19;;;;;;;8.27;3.65;;;;;;;-146.25;100.00;57403.91;4911859;29;20776;-86
2023/10/06 08:06:50;;;;;;;5.10;3.30;;;;;;;-146.25;100.00;57403.91;4911992;29;20240;-87
2023/10/06 08:09:21;;;;;;;3.95;3.60;;;;;;;-146.25;100.00;57403.91;4911169;29;20267;-86
2023/10/06 08:11:54;;;;;;;5.32;3.88;;;;;;;-146.25;100.00;57403.91;4912799;29;20220;-87
2023/10/06 08:14:24;;;;;;;4.15;3.75;;;;;;;-146.25;100.00;57403.91;4909385;29;20675;-86
2023/10/06 08:16:55;;;;;;;5.72;3.78;;;;;;;-146.25;100.00;57403.91;4911114;29;20339;-86
2023/10/06 08:19:26;;;;;;;3.78;3.55;;;;;;;-146.25;100.00;57403.91;4901679;29;20247;-87
2023/10/06 08:21:55;;;;;;;4.25;3.80;;;;;;;-146.25;100.00;57403.91;4912028;29;20238;-85
2023/10/06 08:24:24;;;;;;;3.97;3.67;;;;;;;-146.25;100.00;57403.91;4910258;29;20995;-86
2023/10/06 08:26:54;;;;;;;4.25;4.00;;;;;;;-146.25;100.00;57403.91;4911412;29;20227;-85
2023/10/06 08:29:23;;;;;;;3.65;3.42;;;;;;;-146.25;100.00;57403.91;4910135;29;20243;-85
2023/10/06 08:31:54;;;;;;;4.18;3.80;;;;;;;-146.25;100.00;57403.91;4910501;29;20228;-85
2023/10/06 08:34:25;;;;;;;4.13;3.72;;;;;;;-146.25;100.00;57403.91;4911196;29;20243;-85
2023/10/06 08:36:56;;;;;;;5.20;4.18;;;;;;;-146.25;100.00;57403.91;4911285;29;20281;-87
2023/10/06 08:39:38;;;;;;;5.22;3.22;;;;;;;-146.25;100.00;57403.91;4909775;29;20248;-84
2023/10/06 08:42:10;;;;;;;5.35;4.28;;;;;;;-146.25;100.00;57403.91;4910936;29;20668;-84
2023/10/06 08:44:44;;;;;;;6.25;4.55;;;;;;;-146.25;100.00;57403.91;4898801;29;22489;-84
2023/10/06 08:47:16;;;;;;;5.90;4.13;;;;;;;-146.25;100.00;57403.91;4911012;29;20683;-84
2023/10/06 08:49:48;;;;;;;4.32;3.97;;;;;;;-146.25;100.00;57403.91;4903790;29;20605;-86
2023/10/06 08:52:22;;;;;;;5.95;4.93;;;;;;;-146.25;100.00;57403.91;4912315;29;20235;-85
2023/10/06 08:54:51;;;;;;;4.15;3.75;;;;;;;-146.25;100.00;57403.91;4907205;29;20235;-86
2023/10/06 08:57:30;;;;;;;6.90;4.15;;;;;;;-146.25;100.00;57403.91;4910760;29;20236;-85
2023/10/06 09:00:01;;;;;;;4.82;4.15;;;;;;;-146.25;100.00;57403.91;4910598;29;20247;-85
2023/10/06 09:02:32;;;;;;;4.43;4.03;;;;;;;-146.25;100.00;57403.91;4910592;29;20306;-85
2023/10/06 09:05:05;;;;;;;7.28;4.55;;;;;;;-146.25;100.00;57403.91;4911325;29;20728;-84
2023/10/06 09:07:34;;;;;;;8.15;4.60;;;;;;;-146.25;100.00;57403.91;4903619;29;20243;-84
2023/10/06 09:10:17;;;;;;;4.88;3.90;;;;;;;-146.25;100.00;57403.91;4911822;29;20327;-86
2023/10/06 09:12:46;;;;;;;4.60;4.20;;;;;;;-146.25;100.00;57403.91;4911543;29;20232;-84
2023/10/06 09:15:16;;;;;;;7.32;4.18;;;;;;;-146.25;100.00;57403.91;4906870;29;20640;-84
2023/10/06 09:17:45;;;;;;;5.53;4.50;;;;;;;-146.25;100.00;57403.91;4911138;29;20246;-85
2023/10/06 09:20:13;;;;;;;5.43;4.88;;;;;;;-146.25;100.00;57403.91;4924513;29;20256;-84
2023/10/06 09:22:50;;;;;;;5.03;4.30;;;;;;;-146.25;100.00;57403.91;4923283;29;20239;-85
2023/10/06 09:25:21;;;;;;;4.88;4.35;;;;;;;-146.25;100.00;57403.91;4909852;29;20270;-84
2023/10/06 09:27:49;;;;;;;6.97;4.13;;;;;;;-146.25;100.00;57403.91;4910366;29;20323;-85
2023/10/06 09:30:20;;;;;;;4.70;4.38;;;;;;;-146.25;100.00;57403.91;4909543;29;20466;-85
2023/10/06 09:33:04;;;;;;;6.50;4.50;;;;;;;-146.25;100.00;57403.91;4909675;29;20287;-84
2023/10/06 09:35:34;;;;;;;6.72;3.95;;;;;;;-146.25;100.00;57403.91;4895880;29;20240;-84
2023/10/06 09:38:13;;;;;;;4.82;4.03;;;;;;;-146.25;100.00;57403.91;4911204;29;20250;-83
2023/10/06 09:40:47;;;;;;;4.82;4.10;;;;;;;-146.25;100.00;57403.91;4905780;29;20239;-84
2023/10/06 09:43:19;;;;;;;8.40;4.40;;;;;;;-146.25;100.00;57403.91;4922766;29;20248;-83
2023/10/06 09:45:52;;;;;;;7.53;4.07;;;;;;;-146.25;100.00;57403.91;4914892;29;20236;-85
2023/10/06 09:48:33;;;;;;;4.43;4.00;;;;;;;-146.25;100.00;57403.91;4912252;29;20674;-85
2023/10/06 09:51:08;;;;;;;4.60;4.05;;;;;;;-146.25;100.00;57403.91;4914127;29;20236;-85
2023/10/06 09:53:38;;;;;;;5.75;4.25;;;;;;;-146.25;100.00;57403.91;4916064;29;20259;-86
2023/10/06 09:56:12;;;;;;;5.93;4.32;;;;;;;-146.25;100.00;57403.91;4916516;29;20236;-85
2023/10/06 09:58:47;;;;;;;5.63;4.85;;;;;;;-146.25;100.00;57403.91;4915146;29;20353;-85
2023/10/06 10:01:20;;;;;;;4.32;3.80;;;;;;;-146.25;100.00;57403.91;4916549;29;20242;-84
2023/10/06 10:03:54;;;;;;;5.35;4.38;;;;;;;-146.25;100.00;57403.91;4917168;29;20551;-85
2023/10/06 10:06:24;;;;;;;4.50;3.90;;;;;;;-146.25;100.00;57403.91;4922280;29;20262;-86
2023/10/06 10:08:55;;;;;;;4.97;4.57;;;;;;;-146.25;100.00;57403.91;4933989;29;20266;-85
2023/10/06 10:11:39;;;;;;;5.40;4.47;;;;;;;-146.25;100.00;57403.91;4936753;29;20227;-86
2023/10/06 10:14:50;;;;;;;5.22;4.75;;;;;;;-146.25;100.00;57403.91;4919760;29;20296;-83
2023/10/06 10:17:30;;;;;;;6.20;4.28;;;;;;;-146.25;100.00;57403.91;4929810;29;20247;-86
2023/10/06 10:20:06;;;;;;;6.38;4.70;;;;;;;-146.25;100.00;57403.91;4925234;29;20291;-85
2023/10/06 10:22:36;;;;;;;7.90;4.13;;;;;;;-146.25;100.00;57403.91;4914638;29;20721;-86
2023/10/06 10:25:08;;;;;;;8.43;4.70;;;;;;;-146.25;100.00;57403.91;4914979;29;20506;-87
2023/10/06 10:27:37;;;;;;;6.40;4.13;;;;;;;-146.25;100.00;57403.91;4914840;29;20232;-86
2023/10/06 10:30:10;;;;;;;6.00;4.10;;;;;;;-146.25;100.00;57403.91;4913167;29;20729;-87
2023/10/06 10:32:55;;;;;;;5.85;4.32;;;;;;;-146.25;100.00;57403.91;4899483;29;20236;-86
2023/10/06 10:35:27;;;;;;;4.35;3.95;;;;;;;-146.25;100.00;57403.91;4913665;29;20318;-86
2023/10/06 10:37:58;;;;;;;4.22;3.83;;;;;;;-146.25;100.00;57403.91;4913741;29;20311;-85
2023/10/06 10:40:29;;;;;;;7.50;4.53;;;;;;;-146.25;100.00;57403.91;4913787;29;20732;-86
2023/10/06 10:43:05;;;;;;;6.03;3.90;;;;;;;-146.25;100.00;57403.91;4914291;29;20239;-85
2023/10/06 10:45:43;;;;;;;4.18;3.83;;;;;;;-146.25;100.00;57403.91;4910071;29;20233;-86
2023/10/06 10:48:15;;;;;;;9.88;3.85;;;;;;;-146.25;100.00;57403.91;4895100;29;20247;-85
2023/10/06 10:51:11;;;;;;;4.20;3.88;;;;;;;-146.25;100.00;57403.91;4913967;29;20258;-86
2023/10/06 10:53:47;;;;;;;6.28;4.55;;;;;;;-146.25;100.00;57403.91;4901979;29;20378;-86
2023/10/06 10:56:27;;;;;;;4.07;3.83;;;;;;;-146.25;100.00;57403.91;4912864;29;20308;-86
2023/10/06 10:58:59;;;;;;;4.88;3.90;;;;;;;-146.25;100.00;57403.91;4912882;29;20224;-85
2023/10/06 11:01:31;;;;;;;4.55;3.75;;;;;;;-146.25;100.00;57403.91;4913371;29;20292;-85
2023/10/06 11:04:31;;;;;;;3.53;3.33;;;;;;;-146.25;100.00;57403.91;4915032;29;20232;-86
2023/10/06 11:07:10;;;;;;;4.05;3.75;;;;;;;-146.25;100.00;57403.91;4899911;29;20294;-85
2023/10/06 11:09:41;;;;;;;3.88;3.65;;;;;;;-146.25;100.00;57403.91;4907874;29;20609;-85
2023/10/06 11:12:24;;;;;;;4.43;4.07;;;;;;;-146.25;100.00;57403.91;4914896;29;20243;-86
2023/10/06 11:15:02;;;;;;;4.93;4.15;;;;;;;-146.25;100.00;57403.91;4907586;29;20228;-85
2023/10/06 11:17:31;;;;;;;4.90;3.25;;;;;;;-146.25;100.00;57403.91;4929556;29;20243;-85
2023/10/06 11:20:13;;;;;;;3.70;3.40;;;;;;;-146.25;100.00;57403.91;4923928;29;20315;-85
2023/10/06 11:22:59;;;;;;;3.55;3.28;;;;;;;-146.25;100.00;57403.91;4929612;29;20232;-85
2023/10/06 11:25:28;;;;;;;3.40;3.10;;;;;;;-146.25;100.00;57403.91;4925115;29;20325;-87
2023/10/06 11:28:03;;;;;;;9.50;3.50;;;;;;;-146.25;100.00;57403.91;4915591;29;20236;-87
2023/10/06 11:30:32;;;;;;;5.28;2.90;;;;;;;-146.25;100.00;57403.91;4909483;29;20267;-87
2023/10/06 11:33:06;;;;;;;3.90;3.10;;;;;;;-146.25;100.00;57403.91;4900724;29;20224;-85
2023/10/06 11:35:37;;;;;;;3.50;3.20;;;;;;;-146.25;100.00;57403.91;4905743;29;20235;-87